Time;durP1;ratioP1;P1;durP2;ratioP2;P2;SDS_P1;SDS_P2;PMS_P1;PMS_P2;Temp;Humidity;BMP_temperature;BMP_pressure;BME280_temperature;BME280_humidity;BME280_pressure;Samples;Min_cycle;Max_cycle;Signal;HPM_P1;HPM_P2
2024/01/09 00:01:38;;;;;;;;;;;;;;;;;;5055238;28;20006;-21
2024/01/09 00:04:04;;;;;;;;;;;;;;;;;;5054628;28;19983;-22
2024/01/09 00:06:30;;;;;;;;;;;;;;;;;;5055198;28;19916;-21
2024/01/09 00:08:58;;;;;;;;;;;;;;;;;;5054869;28;19995;-19
2024/01/09 00:11:24;;;;;;;;;;;;;;;;;;5055151;28;19915;-22
2024/01/09 00:13:50;;;;;;;;;;;;;;;;;;5054755;28;19909;-20
2024/01/09 00:16:16;;;;;;;;;;;;;;;;;;5055013;28;19920;-21
2024/01/09 00:18:42;;;;;;;;;;;;;;;;;;5070457;28;19909;-22
2024/01/09 00:21:08;;;;;;;;;;;;;;;;;;5054700;28;19915;-23
2024/01/09 00:23:34;;;;;;;;;;;;;;;;;;5054607;28;19909;-22
2024/01/09 00:26:00;;;;;;;;;;;;;;;;;;5070368;28;19909;-21
2024/01/09 00:28:26;;;;;;;;;;;;;;;;;;5054515;28;20000;-22
2024/01/09 00:30:52;;;;;;;;;;;;;;;;;;5054847;28;19909;-19
2024/01/09 00:33:18;;;;;;;;;;;;;;;;;;5054467;28;19988;-21
2024/01/09 00:35:44;;;;;;;;;;;;;;;;;;5070228;28;19913;-23
2024/01/09 00:38:10;;;;;;;;;;;;;;;;;;5054531;28;20312;-22
2024/01/09 00:40:36;;;;;;;;;;;;;;;;;;5054497;28;19923;-21
2024/01/09 00:43:02;;;;;;;;;;;;;;;;;;5054457;28;19909;-23
2024/01/09 00:45:28;;;;;;;;;;;;;;;;;;5054506;28;19909;-21
2024/01/09 00:47:53;;;;;;;;;;;;;;;;;;5070206;28;19908;-20
2024/01/09 00:50:19;;;;;;;;;;;;;;;;;;5054462;28;19916;-21
2024/01/09 00:52:45;;;;;;;;;;;;;;;;;;5054364;28;20330;-22
2024/01/09 00:55:12;;;;;;;;;;;;;;;;;;5054296;28;20248;-21
2024/01/09 00:57:38;;;;;;;;;;;;;;;;;;5054403;28;19991;-23
2024/01/09 01:00:04;;;;;;;;;;;;;;;;;;5054306;28;20327;-20
2024/01/09 01:02:30;;;;;;;;;;;;;;;;;;5054087;28;19941;-21
2024/01/09 01:04:55;;;;;;;;;;;;;;;;;;5054587;28;19909;-20
2024/01/09 01:07:21;;;;;;;;;;;;;;;;;;5054258;28;19908;-21
2024/01/09 01:09:47;;;;;;;;;;;;;;;;;;5054257;28;20450;-21
2024/01/09 01:12:13;;;;;;;;;;;;;;;;;;5054162;28;20314;-22
2024/01/09 01:14:39;;;;;;;;;;;;;;;;;;5054203;28;19909;-22
2024/01/09 01:17:05;;;;;;;;;;;;;;;;;;5069805;28;19913;-22
2024/01/09 01:19:31;;;;;;;;;;;;;;;;;;5054409;28;19908;-21
2024/01/09 01:21:57;;;;;;;;;;;;;;;;;;5054120;28;19909;-19
2024/01/09 01:24:23;;;;;;;;;;;;;;;;;;5054147;28;20324;-21
2024/01/09 01:26:49;;;;;;;;;;;;;;;;;;5054082;28;19948;-21
2024/01/09 01:29:15;;;;;;;;;;;;;;;;;;5054102;28;19963;-21
2024/01/09 01:31:41;;;;;;;;;;;;;;;;;;5054302;28;19915;-23
2024/01/09 01:34:07;;;;;;;;;;;;;;;;;;5054004;28;19908;-19
2024/01/09 01:36:33;;;;;;;;;;;;;;;;;;5053926;28;19912;-19
2024/01/09 01:38:59;;;;;;;;;;;;;;;;;;5055278;28;20252;-19
2024/01/09 01:41:25;;;;;;;;;;;;;;;;;;5057548;28;19975;-22
2024/01/09 01:43:51;;;;;;;;;;;;;;;;;;5057691;28;19916;-22
2024/01/09 01:46:17;;;;;;;;;;;;;;;;;;5057498;28;19909;-21
2024/01/09 01:48:43;;;;;;;;;;;;;;;;;;5057672;28;19909;-22
2024/01/09 01:51:09;;;;;;;;;;;;;;;;;;5057380;28;20453;-21
2024/01/09 01:53:35;;;;;;;;;;;;;;;;;;5057289;28;19913;-20
2024/01/09 01:56:01;;;;;;;;;;;;;;;;;;5057219;28;19913;-20
2024/01/09 01:58:29;;;;;;;;;;;;;;;;;;5057226;28;20298;-22
2024/01/09 02:00:55;;;;;;;;;;;;;;;;;;5057295;28;19913;-18
2024/01/09 02:03:21;;;;;;;;;;;;;;;;;;5056910;28;19935;-20
2024/01/09 02:05:47;;;;;;;;;;;;;;;;;;5057125;28;19999;-22
2024/01/09 02:08:13;;;;;;;;;;;;;;;;;;5057074;28;19966;-22
2024/01/09 02:10:39;;;;;;;;;;;;;;;;;;5056996;28;19935;-23
2024/01/09 02:13:05;;;;;;;;;;;;;;;;;;5056913;28;20330;-22
2024/01/09 02:15:31;;;;;;;;;;;;;;;;;;5056924;28;19974;-22
2024/01/09 02:17:57;;;;;;;;;;;;;;;;;;5056919;28;19920;-21
2024/01/09 02:20:23;;;;;;;;;;;;;;;;;;5056905;28;19908;-19
2024/01/09 02:22:49;;;;;;;;;;;;;;;;;;5056735;28;20005;-22
2024/01/09 02:25:15;;;;;;;;;;;;;;;;;;5056832;28;20237;-30
2024/01/09 02:27:41;;;;;;;;;;;;;;;;;;5057032;28;19916;-25
2024/01/09 02:30:07;;;;;;;;;;;;;;;;;;5056907;28;20003;-23
2024/01/09 02:32:33;;;;;;;;;;;;;;;;;;5056598;28;19909;-27
2024/01/09 02:34:59;;;;;;;;;;;;;;;;;;5056540;28;19974;-21
2024/01/09 02:37:25;;;;;;;;;;;;;;;;;;5056853;28;19913;-22
2024/01/09 02:39:51;;;;;;;;;;;;;;;;;;5056528;28;20405;-23
2024/01/09 02:42:17;;;;;;;;;;;;;;;;;;5056708;28;20344;-24
2024/01/09 02:44:43;;;;;;;;;;;;;;;;;;5056707;28;19909;-27
2024/01/09 02:47:09;;;;;;;;;;;;;;;;;;5056296;28;19978;-22
2024/01/09 02:49:35;;;;;;;;;;;;;;;;;;5056214;28;19913;-27
2024/01/09 02:52:01;;;;;;;;;;;;;;;;;;5055419;28;19940;-26
2024/01/09 02:54:27;;;;;;;;;;;;;;;;;;5056203;28;19909;-25
2024/01/09 02:56:53;;;;;;;;;;;;;;;;;;5056121;28;19974;-22
2024/01/09 02:59:19;;;;;;;;;;;;;;;;;;5056100;28;19909;-27
2024/01/09 03:01:45;;;;;;;;;;;;;;;;;;5055987;28;19921;-29
2024/01/09 03:04:11;;;;;;;;;;;;;;;;;;5055819;28;19920;-23
2024/01/09 03:06:37;;;;;;;;;;;;;;;;;;5055846;28;19923;-23
2024/01/09 03:09:03;;;;;;;;;;;;;;;;;;5055925;28;19952;-22
2024/01/09 03:11:29;;;;;;;;;;;;;;;;;;5056250;28;19915;-27
2024/01/09 03:13:54;;;;;;;;;;;;;;;;;;5056046;28;20263;-27
2024/01/09 03:16:20;;;;;;;;;;;;;;;;;;5056047;28;20018;-22
2024/01/09 03:18:46;;;;;;;;;;;;;;;;;;5055785;28;19916;-28
2024/01/09 03:21:12;;;;;;;;;;;;;;;;;;5055745;28;19916;-23
2024/01/09 03:23:38;;;;;;;;;;;;;;;;;;5055902;28;20282;-22
2024/01/09 03:26:04;;;;;;;;;;;;;;;;;;5055894;28;20015;-20
2024/01/09 03:28:30;;;;;;;;;;;;;;;;;;5055607;28;19959;-21
2024/01/09 03:30:56;;;;;;;;;;;;;;;;;;5055824;28;19909;-27
2024/01/09 03:33:22;;;;;;;;;;;;;;;;;;5055715;28;19912;-26
2024/01/09 03:35:48;;;;;;;;;;;;;;;;;;5055374;28;19913;-26
2024/01/09 03:38:14;;;;;;;;;;;;;;;;;;5055406;28;19956;-26
2024/01/09 03:40:40;;;;;;;;;;;;;;;;;;5055629;28;19909;-26
2024/01/09 03:43:06;;;;;;;;;;;;;;;;;;5055232;28;19984;-26
2024/01/09 03:45:32;;;;;;;;;;;;;;;;;;5055294;28;19940;-23
2024/01/09 03:47:58;;;;;;;;;;;;;;;;;;5055412;28;19909;-27
2024/01/09 03:50:24;;;;;;;;;;;;;;;;;;5055169;28;19919;-24
2024/01/09 03:52:50;;;;;;;;;;;;;;;;;;5070796;28;19959;-27
2024/01/09 03:55:16;;;;;;;;;;;;;;;;;;5055289;28;19919;-27
2024/01/09 03:57:42;;;;;;;;;;;;;;;;;;5055074;28;19912;-26
2024/01/09 04:00:08;;;;;;;;;;;;;;;;;;5055051;28;19978;-28
2024/01/09 04:02:34;;;;;;;;;;;;;;;;;;5054355;28;19909;-23
2024/01/09 04:05:00;;;;;;;;;;;;;;;;;;5054943;28;20336;-28
2024/01/09 04:07:26;;;;;;;;;;;;;;;;;;5055158;28;19920;-28
2024/01/09 04:09:52;;;;;;;;;;;;;;;;;;5054879;28;19909;-25
2024/01/09 04:12:18;;;;;;;;;;;;;;;;;;5055062;28;19917;-22
2024/01/09 04:14:44;;;;;;;;;;;;;;;;;;5054779;28;19908;-23
2024/01/09 04:17:10;;;;;;;;;;;;;;;;;;5054735;28;19912;-21
2024/01/09 04:19:36;;;;;;;;;;;;;;;;;;5054765;28;19940;-26
2024/01/09 04:22:02;;;;;;;;;;;;;;;;;;5054873;28;19970;-29
2024/01/09 04:24:28;;;;;;;;;;;;;;;;;;5054738;28;19940;-23
2024/01/09 04:26:54;;;;;;;;;;;;;;;;;;5054692;28;19916;-23
2024/01/09 04:29:20;;;;;;;;;;;;;;;;;;5054640;28;19908;-23
2024/01/09 04:31:46;;;;;;;;;;;;;;;;;;5054543;28;19909;-26
2024/01/09 04:34:12;;;;;;;;;;;;;;;;;;5054632;28;19916;-23
2024/01/09 04:36:38;;;;;;;;;;;;;;;;;;5054576;28;20314;-23
2024/01/09 04:39:04;;;;;;;;;;;;;;;;;;5054552;28;20247;-28
2024/01/09 04:41:30;;;;;;;;;;;;;;;;;;5054798;28;19952;-23
2024/01/09 04:43:56;;;;;;;;;;;;;;;;;;5054644;28;19909;-23
2024/01/09 04:46:22;;;;;;;;;;;;;;;;;;5054433;28;19935;-27
2024/01/09 04:48:48;;;;;;;;;;;;;;;;;;5054424;28;19909;-29
2024/01/09 04:51:14;;;;;;;;;;;;;;;;;;5054286;28;20309;-25
2024/01/09 04:53:40;;;;;;;;;;;;;;;;;;5069891;28;19917;-27
2024/01/09 04:56:06;;;;;;;;;;;;;;;;;;5054426;28;19913;-28
2024/01/09 04:58:32;;;;;;;;;;;;;;;;;;5054200;28;19919;-22
2024/01/09 05:00:58;;;;;;;;;;;;;;;;;;5054457;28;20259;-23
2024/01/09 05:03:24;;;;;;;;;;;;;;;;;;5053972;28;19921;-25
2024/01/09 05:05:50;;;;;;;;;;;;;;;;;;5054198;28;19909;-25
2024/01/09 05:08:16;;;;;;;;;;;;;;;;;;5054207;28;20047;-22
2024/01/09 05:10:42;;;;;;;;;;;;;;;;;;5054081;28;19975;-27
2024/01/09 05:13:09;;;;;;;;;;;;;;;;;;5054521;28;19920;-23
2024/01/09 05:15:35;;;;;;;;;;;;;;;;;;5057844;28;20004;-28
2024/01/09 05:18:01;;;;;;;;;;;;;;;;;;5073584;28;20295;-20
2024/01/09 05:20:27;;;;;;;;;;;;;;;;;;5058081;28;19916;-26
2024/01/09 05:22:53;;;;;;;;;;;;;;;;;;5057860;28;19916;-25
2024/01/09 05:25:19;;;;;;;;;;;;;;;;;;5057780;28;19909;-23
2024/01/09 05:27:45;;;;;;;;;;;;;;;;;;5057700;28;20315;-23
2024/01/09 05:30:11;;;;;;;;;;;;;;;;;;5057663;28;20012;-26
2024/01/09 05:32:37;;;;;;;;;;;;;;;;;;5057686;28;19913;-25
2024/01/09 05:35:03;;;;;;;;;;;;;;;;;;5057491;28;19974;-23
2024/01/09 05:37:29;;;;;;;;;;;;;;;;;;5057513;28;19913;-24
2024/01/09 05:39:55;;;;;;;;;;;;;;;;;;5057579;28;19912;-28
2024/01/09 05:42:21;;;;;;;;;;;;;;;;;;5057471;28;19948;-27
2024/01/09 05:44:47;;;;;;;;;;;;;;;;;;5057735;28;19920;-27
2024/01/09 05:47:13;;;;;;;;;;;;;;;;;;5057252;28;19908;-32
2024/01/09 05:49:39;;;;;;;;;;;;;;;;;;5073040;28;19947;-26
2024/01/09 05:52:05;;;;;;;;;;;;;;;;;;5072780;28;19924;-27
2024/01/09 05:54:31;;;;;;;;;;;;;;;;;;5057285;28;19915;-28
2024/01/09 05:56:57;;;;;;;;;;;;;;;;;;5057614;28;19923;-25
2024/01/09 05:59:23;;;;;;;;;;;;;;;;;;5056843;28;19982;-27
2024/01/09 06:01:49;;;;;;;;;;;;;;;;;;5072142;28;19920;-29
2024/01/09 06:04:15;;;;;;;;;;;;;;;;;;5056735;28;19921;-28
2024/01/09 06:06:41;;;;;;;;;;;;;;;;;;5056911;28;19999;-25
2024/01/09 06:09:08;;;;;;;;;;;;;;;;;;5056941;28;19909;-21
2024/01/09 06:11:34;;;;;;;;;;;;;;;;;;5072633;28;20004;-24
2024/01/09 06:14:00;;;;;;;;;;;;;;;;;;5057002;28;19963;-28
2024/01/09 06:16:26;;;;;;;;;;;;;;;;;;5056749;28;19921;-22
2024/01/09 06:18:52;;;;;;;;;;;;;;;;;;5056892;28;19916;-24
2024/01/09 06:21:18;;;;;;;;;;;;;;;;;;5057044;28;20379;-28
2024/01/09 06:23:47;;;;;;;;;;;;;;;;;;5056660;28;19909;-26
2024/01/09 06:26:13;;;;;;;;;;;;;;;;;;5056177;28;19996;-26
2024/01/09 06:28:39;;;;;;;;;;;;;;;;;;5056377;28;20013;-25
2024/01/09 06:31:04;;;;;;;;;;;;;;;;;;5056549;28;19913;-23
2024/01/09 06:33:30;;;;;;;;;;;;;;;;;;5056275;28;19935;-28
2024/01/09 06:35:56;;;;;;;;;;;;;;;;;;5056116;28;19959;-22
2024/01/09 06:38:22;;;;;;;;;;;;;;;;;;5056107;28;19909;-25
2024/01/09 06:40:48;;;;;;;;;;;;;;;;;;5056270;28;19909;-26
2024/01/09 06:43:14;;;;;;;;;;;;;;;;;;5055898;28;19913;-22
2024/01/09 06:45:41;;;;;;;;;;;;;;;;;;5055810;28;19919;-23
2024/01/09 06:48:07;;;;;;;;;;;;;;;;;;5055878;28;19909;-27
2024/01/09 06:50:33;;;;;;;;;;;;;;;;;;5055876;28;20375;-24
2024/01/09 06:52:59;;;;;;;;;;;;;;;;;;5056067;28;20252;-24
2024/01/09 06:55:25;;;;;;;;;;;;;;;;;;5055377;28;19921;-26
2024/01/09 06:57:51;;;;;;;;;;;;;;;;;;5056164;28;19928;-26
2024/01/09 07:00:18;;;;;;;;;;;;;;;;;;5055879;28;19915;-27
2024/01/09 07:02:44;;;;;;;;;;;;;;;;;;5055541;28;19917;-29
2024/01/09 07:05:10;;;;;;;;;;;;;;;;;;5055778;28;19996;-23
2024/01/09 07:07:36;;;;;;;;;;;;;;;;;;5055575;28;19958;-28
2024/01/09 07:10:02;;;;;;;;;;;;;;;;;;5055634;28;19920;-23
2024/01/09 07:12:29;;;;;;;;;;;;;;;;;;5055034;28;19909;-21
2024/01/09 07:14:55;;;;;;;;;;;;;;;;;;5055026;28;19948;-35
2024/01/09 07:17:22;;;;;;;;;;;;;;;;;;5054687;28;19967;-25
2024/01/09 07:19:48;;;;;;;;;;;;;;;;;;5054640;28;19920;-22
2024/01/09 07:22:14;;;;;;;;;;;;;;;;;;5054449;28;19987;-26
2024/01/09 07:24:40;;;;;;;;;;;;;;;;;;5070634;28;20012;-26
2024/01/09 07:27:06;;;;;;;;;;;;;;;;;;5054469;28;19963;-23
2024/01/09 07:29:32;;;;;;;;;;;;;;;;;;5054587;28;20272;-24
2024/01/09 07:31:58;;;;;;;;;;;;;;;;;;5054173;28;19943;-29
2024/01/09 07:34:24;;;;;;;;;;;;;;;;;;5054423;28;20316;-26
2024/01/09 07:36:50;;;;;;;;;;;;;;;;;;5053869;28;19913;-25
2024/01/09 07:39:16;;;;;;;;;;;;;;;;;;5054533;28;20327;-26
2024/01/09 07:41:43;;;;;;;;;;;;;;;;;;5054998;28;19974;-25
2024/01/09 07:44:09;;;;;;;;;;;;;;;;;;5070236;28;20328;-23
2024/01/09 07:46:35;;;;;;;;;;;;;;;;;;5054919;28;19913;-30
2024/01/09 07:49:01;;;;;;;;;;;;;;;;;;5055591;28;19912;-27
2024/01/09 07:51:27;;;;;;;;;;;;;;;;;;5054517;28;20233;-24
2024/01/09 07:53:53;;;;;;;;;;;;;;;;;;5054613;28;19909;-25
2024/01/09 07:56:19;;;;;;;;;;;;;;;;;;5054588;28;20389;-24
2024/01/09 07:58:45;;;;;;;;;;;;;;;;;;5054718;28;19913;-26
2024/01/09 08:01:10;;;;;;;;;;;;;;;;;;5054751;28;19916;-25
2024/01/09 08:03:36;;;;;;;;;;;;;;;;;;5054210;28;19958;-26
2024/01/09 08:06:02;;;;;;;;;;;;;;;;;;5054298;28;19931;-28
2024/01/09 08:08:28;;;;;;;;;;;;;;;;;;5054512;28;20050;-28
2024/01/09 08:10:54;;;;;;;;;;;;;;;;;;5054721;28;19912;-23
2024/01/09 08:13:20;;;;;;;;;;;;;;;;;;5054370;28;20054;-24
2024/01/09 08:15:46;;;;;;;;;;;;;;;;;;5069974;28;20370;-27
2024/01/09 08:18:12;;;;;;;;;;;;;;;;;;5054453;28;19920;-24
2024/01/09 08:20:38;;;;;;;;;;;;;;;;;;5054792;28;19909;-24
2024/01/09 08:23:04;;;;;;;;;;;;;;;;;;5054587;28;20198;-25
2024/01/09 08:25:30;;;;;;;;;;;;;;;;;;5054374;28;19908;-24
2024/01/09 08:27:56;;;;;;;;;;;;;;;;;;5054669;28;19947;-25
2024/01/09 08:30:22;;;;;;;;;;;;;;;;;;5069984;28;19909;-26
2024/01/09 08:32:48;;;;;;;;;;;;;;;;;;5054050;28;19971;-30
2024/01/09 08:35:14;;;;;;;;;;;;;;;;;;5054352;28;19974;-25
2024/01/09 08:37:40;;;;;;;;;;;;;;;;;;5054233;28;19948;-26
2024/01/09 08:40:06;;;;;;;;;;;;;;;;;;5054116;28;19924;-23
2024/01/09 08:42:32;;;;;;;;;;;;;;;;;;5054353;28;20228;-27
2024/01/09 08:44:58;;;;;;;;;;;;;;;;;;5054019;28;19916;-26
2024/01/09 08:47:24;;;;;;;;;;;;;;;;;;5054473;28;20004;-29
2024/01/09 08:49:51;;;;;;;;;;;;;;;;;;5058340;28;19980;-25
2024/01/09 08:52:21;;;;;;;;;;;;;;;;;;5074443;28;19909;-24
2024/01/09 08:54:47;;;;;;;;;;;;;;;;;;5058393;28;20006;-28
2024/01/09 08:57:13;;;;;;;;;;;;;;;;;;5058169;28;19959;-25
2024/01/09 08:59:39;;;;;;;;;;;;;;;;;;5058393;28;19909;-26
2024/01/09 09:02:05;;;;;;;;;;;;;;;;;;5058005;28;19928;-24
2024/01/09 09:04:31;;;;;;;;;;;;;;;;;;5057792;28;19920;-26
2024/01/09 09:06:57;;;;;;;;;;;;;;;;;;5058086;28;19943;-25
2024/01/09 09:09:23;;;;;;;;;;;;;;;;;;5057646;28;20336;-29
2024/01/09 09:11:49;;;;;;;;;;;;;;;;;;5057821;28;19909;-26
2024/01/09 09:14:15;;;;;;;;;;;;;;;;;;5057805;28;20267;-25
2024/01/09 09:16:41;;;;;;;;;;;;;;;;;;5057794;28;19935;-22
2024/01/09 09:19:07;;;;;;;;;;;;;;;;;;5057956;28;19909;-29
2024/01/09 09:21:33;;;;;;;;;;;;;;;;;;5057423;28;19974;-23
2024/01/09 09:23:59;;;;;;;;;;;;;;;;;;5057315;28;19916;-28
2024/01/09 09:26:27;;;;;;;;;;;;;;;;;;5057514;28;19913;-22
2024/01/09 09:28:53;;;;;;;;;;;;;;;;;;5057658;28;19932;-24
2024/01/09 09:31:19;;;;;;;;;;;;;;;;;;5057355;28;20013;-25
2024/01/09 09:33:45;;;;;;;;;;;;;;;;;;5057253;28;20362;-25
2024/01/09 09:36:11;;;;;;;;;;;;;;;;;;5057509;28;19959;-25
2024/01/09 09:38:37;;;;;;;;;;;;;;;;;;5057393;28;20374;-29
2024/01/09 09:41:03;;;;;;;;;;;;;;;;;;5057572;28;20301;-26
2024/01/09 09:43:29;;;;;;;;;;;;;;;;;;5057258;28;19909;-29
2024/01/09 09:45:58;;;;;;;;;;;;;;;;;;5057412;28;20062;-27
2024/01/09 09:48:24;;;;;;;;;;;;;;;;;;5056779;28;19919;-30
2024/01/09 09:50:50;;;;;;;;;;;;;;;;;;5056721;28;19941;-30
2024/01/09 09:53:18;;;;;;;;;;;;;;;;;;5072200;28;19928;-29
2024/01/09 09:55:45;;;;;;;;;;;;;;;;;;5056518;28;19923;-26
2024/01/09 09:58:11;;;;;;;;;;;;;;;;;;5056505;28;19908;-25
2024/01/09 10:00:37;;;;;;;;;;;;;;;;;;5055874;28;19974;-23
2024/01/09 10:03:03;;;;;;;;;;;;;;;;;;5056178;28;20343;-22
2024/01/09 10:05:29;;;;;;;;;;;;;;;;;;5072027;28;19936;-29
2024/01/09 10:07:55;;;;;;;;;;;;;;;;;;5056342;28;20335;-25
2024/01/09 10:10:21;;;;;;;;;;;;;;;;;;5056317;28;19908;-29
2024/01/09 10:12:48;;;;;;;;;;;;;;;;;;5056298;28;19909;-22
2024/01/09 10:15:17;;;;;;;;;;;;;;;;;;5056351;28;19932;-25
2024/01/09 10:17:44;;;;;;;;;;;;;;;;;;5056301;28;19935;-22
2024/01/09 10:20:10;;;;;;;;;;;;;;;;;;5056349;28;20056;-27
2024/01/09 10:22:38;;;;;;;;;;;;;;;;;;5056317;28;19912;-22
2024/01/09 10:25:04;;;;;;;;;;;;;;;;;;5056666;28;19920;-23
2024/01/09 10:27:30;;;;;;;;;;;;;;;;;;5056503;28;19909;-26
2024/01/09 10:29:56;;;;;;;;;;;;;;;;;;5056758;28;19909;-27
2024/01/09 10:32:23;;;;;;;;;;;;;;;;;;5056340;28;19978;-24
2024/01/09 10:34:49;;;;;;;;;;;;;;;;;;5056278;28;19909;-25
2024/01/09 10:37:15;;;;;;;;;;;;;;;;;;5056632;28;19982;-24
2024/01/09 10:39:42;;;;;;;;;;;;;;;;;;5056502;28;19992;-29
2024/01/09 10:42:09;;;;;;;;;;;;;;;;;;5056118;28;19915;-25
2024/01/09 10:44:35;;;;;;;;;;;;;;;;;;5056211;28;19940;-28
2024/01/09 10:47:01;;;;;;;;;;;;;;;;;;5071806;28;19920;-25
2024/01/09 10:49:27;;;;;;;;;;;;;;;;;;5055914;28;19909;-23
2024/01/09 10:51:53;;;;;;;;;;;;;;;;;;5055838;28;19909;-23
2024/01/09 10:54:19;;;;;;;;;;;;;;;;;;5071711;28;20003;-24
2024/01/09 10:56:45;;;;;;;;;;;;;;;;;;5055601;28;19924;-25
2024/01/09 10:59:11;;;;;;;;;;;;;;;;;;5071375;28;19909;-25
2024/01/09 11:01:37;;;;;;;;;;;;;;;;;;5055824;28;19920;-23
2024/01/09 11:04:03;;;;;;;;;;;;;;;;;;5055580;28;19921;-28
2024/01/09 11:06:29;;;;;;;;;;;;;;;;;;5055920;28;19908;-25
2024/01/09 11:08:58;;;;;;;;;;;;;;;;;;5055890;28;20260;-22
2024/01/09 11:11:24;;;;;;;;;;;;;;;;;;5055036;28;19920;-26
2024/01/09 11:13:50;;;;;;;;;;;;;;;;;;5055578;28;19909;-26
2024/01/09 11:16:16;;;;;;;;;;;;;;;;;;5055565;28;20346;-24
2024/01/09 11:18:41;;;;;;;;;;;;;;;;;;5055319;28;20282;-23
2024/01/09 11:21:07;;;;;;;;;;;;;;;;;;5055165;28;19908;-24
2024/01/09 11:23:33;;;;;;;;;;;;;;;;;;5055314;28;19913;-22
2024/01/09 11:26:02;;;;;;;;;;;;;;;;;;5055613;28;20023;-26
2024/01/09 11:28:28;;;;;;;;;;;;;;;;;;5055711;28;19909;-26
2024/01/09 11:30:54;;;;;;;;;;;;;;;;;;5055602;28;20382;-21
2024/01/09 11:33:28;;;;;;;;;;;;;;;;;;5133431;27;19977;-22
2024/01/09 11:35:54;;;;;;;;;;;;;;;;;;5132869;28;20003;-26
2024/01/09 11:38:20;;;;;;;;;;;;;;;;;;5133069;28;20303;-26
2024/01/09 11:40:46;;;;;;;;;;;;;;;;;;5133036;28;19999;-21
2024/01/09 11:43:12;;;;;;;;;;;;;;;;;;5132788;28;20223;-26
2024/01/09 11:45:38;;;;;;;;;;;;;;;;;;5132747;28;19908;-22
2024/01/09 11:48:04;;;;;;;;;;;;;;;;;;5132648;28;19908;-31
2024/01/09 11:50:30;;;;;;;;;;;;;;;;;;5132537;28;19915;-28
2024/01/09 11:52:58;;;;;;;;;;;;;;;;;;5132589;28;19912;-23
2024/01/09 11:55:24;;;;;;;;;;;;;;;;;;5132497;28;19908;-27
2024/01/09 11:57:50;;;;;;;;;;;;;;;;;;5132783;28;19915;-26
2024/01/09 12:00:16;;;;;;;;;;;;;;;;;;5132119;28;19919;-25
2024/01/09 12:02:42;;;;;;;;;;;;;;;;;;5131954;28;19969;-22
2024/01/09 12:05:08;;;;;;;;;;;;;;;;;;5131798;28;19916;-23
2024/01/09 12:07:34;;;;;;;;;;;;;;;;;;5131904;28;19976;-32
2024/01/09 12:10:00;;;;;;;;;;;;;;;;;;5130420;28;20366;-25
2024/01/09 12:12:26;;;;;;;;;;;;;;;;;;5131331;28;19911;-28
2024/01/09 12:14:52;;;;;;;;;;;;;;;;;;5131706;28;19915;-27
2024/01/09 12:17:18;;;;;;;;;;;;;;;;;;5131557;28;19950;-23
2024/01/09 12:19:44;;;;;;;;;;;;;;;;;;5131328;28;19950;-24
2024/01/09 12:22:10;;;;;;;;;;;;;;;;;;5131694;28;19947;-28
2024/01/09 12:24:36;;;;;;;;;;;;;;;;;;5131863;28;19962;-19
2024/01/09 12:27:02;;;;;;;;;;;;;;;;;;5131664;28;20361;-23
2024/01/09 12:29:28;;;;;;;;;;;;;;;;;;5131792;28;19994;-29
2024/01/09 12:31:55;;;;;;;;;;;;;;;;;;5131340;28;19920;-25
2024/01/09 12:34:21;;;;;;;;;;;;;;;;;;5131757;28;19931;-25
2024/01/09 12:36:47;;;;;;;;;;;;;;;;;;5131487;28;19908;-26
2024/01/09 12:39:13;;;;;;;;;;;;;;;;;;5131695;28;19915;-24
2024/01/09 12:41:39;;;;;;;;;;;;;;;;;;5131573;28;20269;-26
2024/01/09 12:44:05;;;;;;;;;;;;;;;;;;5121885;28;19908;-25
2024/01/09 12:46:31;;;;;;;;;;;;;;;;;;5116827;28;19919;-25
2024/01/09 12:48:57;;;;;;;;;;;;;;;;;;5117906;28;20330;-27
2024/01/09 12:51:23;;;;;;;;;;;;;;;;;;5117651;28;20034;-26
2024/01/09 12:53:49;;;;;;;;;;;;;;;;;;5117848;28;20366;-23
2024/01/09 12:56:15;;;;;;;;;;;;;;;;;;5117710;28;20399;-26
2024/01/09 12:58:41;;;;;;;;;;;;;;;;;;5117821;28;20229;-23
2024/01/09 13:01:07;;;;;;;;;;;;;;;;;;5117832;28;19908;-26
2024/01/09 13:03:33;;;;;;;;;;;;;;;;;;5117558;28;19918;-28
2024/01/09 13:06:01;;;;;;;;;;;;;;;;;;5117907;28;20337;-28
2024/01/09 13:08:27;;;;;;;;;;;;;;;;;;5116380;28;19912;-27
2024/01/09 13:10:53;;;;;;;;;;;;;;;;;;5117267;28;20407;-26
2024/01/09 13:13:19;;;;;;;;;;;;;;;;;;5117518;28;19912;-22
2024/01/09 13:15:44;;;;;;;;;;;;;;;;;;5117347;28;20440;-26
2024/01/09 13:18:10;;;;;;;;;;;;;;;;;;5117246;28;19915;-27
2024/01/09 13:20:38;;;;;;;;;;;;;;;;;;5117174;28;19943;-25
2024/01/09 13:23:04;;;;;;;;;;;;;;;;;;5117187;28;20290;-25
2024/01/09 13:25:31;;;;;;;;;;;;;;;;;;5117094;28;20263;-24
2024/01/09 13:27:57;;;;;;;;;;;;;;;;;;5117111;28;19908;-24
2024/01/09 13:30:23;;;;;;;;;;;;;;;;;;5116924;28;20312;-30
2024/01/09 13:32:49;;;;;;;;;;;;;;;;;;5116416;28;19923;-27
2024/01/09 13:35:15;;;;;;;;;;;;;;;;;;5116600;28;19908;-25
2024/01/09 13:37:41;;;;;;;;;;;;;;;;;;5117000;28;20254;-26
2024/01/09 13:40:08;;;;;;;;;;;;;;;;;;5116792;28;19908;-27
2024/01/09 13:42:35;;;;;;;;;;;;;;;;;;5116522;28;19908;-24
2024/01/09 13:45:00;;;;;;;;;;;;;;;;;;5116956;28;19928;-23
2024/01/09 13:47:27;;;;;;;;;;;;;;;;;;5115426;28;19935;-24
2024/01/09 13:49:53;;;;;;;;;;;;;;;;;;5116500;28;19914;-24
2024/01/09 13:52:19;;;;;;;;;;;;;;;;;;5116468;28;20418;-27
2024/01/09 13:54:45;;;;;;;;;;;;;;;;;;5115904;28;20392;-28
2024/01/09 13:57:13;;;;;;;;;;;;;;;;;;5116285;28;19919;-33
2024/01/09 13:59:39;;;;;;;;;;;;;;;;;;5116319;28;19951;-29
2024/01/09 14:02:06;;;;;;;;;;;;;;;;;;5116424;28;19943;-25
2024/01/09 14:04:32;;;;;;;;;;;;;;;;;;5116646;28;20253;-24
2024/01/09 14:06:58;;;;;;;;;;;;;;;;;;5116220;28;19908;-22
2024/01/09 14:09:24;;;;;;;;;;;;;;;;;;5116107;28;19915;-26
2024/01/09 14:11:50;;;;;;;;;;;;;;;;;;5116062;28;19959;-25
2024/01/09 14:14:18;;;;;;;;;;;;;;;;;;5115894;28;20403;-25
2024/01/09 14:16:44;;;;;;;;;;;;;;;;;;5116150;28;19904;-22
2024/01/09 14:19:10;;;;;;;;;;;;;;;;;;5115033;28;19922;-26
2024/01/09 14:21:36;;;;;;;;;;;;;;;;;;5115967;28;19904;-23
2024/01/09 14:24:02;;;;;;;;;;;;;;;;;;5116294;28;19915;-23
2024/01/09 14:26:28;;;;;;;;;;;;;;;;;;5115959;28;19929;-22
2024/01/09 14:28:54;;;;;;;;;;;;;;;;;;5115708;28;19908;-33
2024/01/09 14:31:20;;;;;;;;;;;;;;;;;;5115365;28;20356;-28
2024/01/09 14:33:46;;;;;;;;;;;;;;;;;;5115575;28;19908;-29
2024/01/09 14:36:12;;;;;;;;;;;;;;;;;;5115639;28;20014;-26
2024/01/09 14:38:38;;;;;;;;;;;;;;;;;;5115441;28;19951;-24
2024/01/09 14:41:04;;;;;;;;;;;;;;;;;;5115756;28;19965;-21
2024/01/09 14:43:32;;;;;;;;;;;;;;;;;;5115660;28;20168;-23
2024/01/09 14:45:58;;;;;;;;;;;;;;;;;;5115156;28;19908;-20
2024/01/09 14:48:24;;;;;;;;;;;;;;;;;;5115320;28;19911;-24
2024/01/09 14:50:50;;;;;;;;;;;;;;;;;;5115265;28;19912;-28
2024/01/09 14:53:16;;;;;;;;;;;;;;;;;;5114987;28;20054;-25
2024/01/09 14:55:42;;;;;;;;;;;;;;;;;;5114072;28;19907;-22
2024/01/09 14:58:08;;;;;;;;;;;;;;;;;;5115285;28;19908;-20
2024/01/09 15:00:34;;;;;;;;;;;;;;;;;;5115506;28;19958;-28
2024/01/09 15:03:00;;;;;;;;;;;;;;;;;;5115157;28;20250;-24
2024/01/09 15:05:26;;;;;;;;;;;;;;;;;;5114204;28;19908;-35
2024/01/09 15:07:52;;;;;;;;;;;;;;;;;;5115261;28;19951;-27
2024/01/09 15:10:18;;;;;;;;;;;;;;;;;;5115216;28;19907;-24
2024/01/09 15:12:44;;;;;;;;;;;;;;;;;;5115422;28;19916;-26
2024/01/09 15:15:10;;;;;;;;;;;;;;;;;;5115218;28;19994;-22
2024/01/09 15:17:36;;;;;;;;;;;;;;;;;;5114762;28;19908;-29
2024/01/09 15:20:04;;;;;;;;;;;;;;;;;;5115132;28;19919;-24
2024/01/09 15:22:30;;;;;;;;;;;;;;;;;;5115129;28;19943;-23
2024/01/09 15:24:56;;;;;;;;;;;;;;;;;;5114919;28;19908;-25
2024/01/09 15:27:22;;;;;;;;;;;;;;;;;;5115182;28;19915;-24
2024/01/09 15:29:49;;;;;;;;;;;;;;;;;;5114309;28;19907;-24
2024/01/09 15:32:15;;;;;;;;;;;;;;;;;;5114407;28;19958;-29
2024/01/09 15:34:41;;;;;;;;;;;;;;;;;;5115306;28;20258;-25
2024/01/09 15:37:10;;;;;;;;;;;;;;;;;;5114833;28;19907;-26
2024/01/09 15:39:36;;;;;;;;;;;;;;;;;;5114994;28;19908;-23
2024/01/09 15:42:02;;;;;;;;;;;;;;;;;;5115036;28;20318;-24
2024/01/09 15:44:28;;;;;;;;;;;;;;;;;;5114681;28;19908;-25
2024/01/09 15:46:54;;;;;;;;;;;;;;;;;;5114554;28;19908;-25
2024/01/09 15:49:20;;;;;;;;;;;;;;;;;;5114606;28;19914;-23
2024/01/09 15:51:46;;;;;;;;;;;;;;;;;;5114327;28;19911;-24
2024/01/09 15:54:12;;;;;;;;;;;;;;;;;;5114890;28;20339;-24
2024/01/09 15:56:40;;;;;;;;;;;;;;;;;;5115047;28;20288;-22
2024/01/09 15:59:06;;;;;;;;;;;;;;;;;;5114781;28;20002;-25
2024/01/09 16:01:32;;;;;;;;;;;;;;;;;;5114729;28;19904;-25
2024/01/09 16:03:58;;;;;;;;;;;;;;;;;;5114627;28;19908;-22
2024/01/09 16:06:24;;;;;;;;;;;;;;;;;;5115023;28;19914;-24
2024/01/09 16:08:50;;;;;;;;;;;;;;;;;;5114487;28;20247;-25
2024/01/09 16:11:16;;;;;;;;;;;;;;;;;;5113154;28;19963;-25
2024/01/09 16:13:42;;;;;;;;;;;;;;;;;;5114104;28;19908;-26
2024/01/09 16:16:09;;;;;;;;;;;;;;;;;;5114218;28;20402;-29
2024/01/09 16:18:35;;;;;;;;;;;;;;;;;;5114823;28;20010;-25
2024/01/09 16:21:01;;;;;;;;;;;;;;;;;;5117839;28;19983;-22
2024/01/09 16:23:27;;;;;;;;;;;;;;;;;;5117927;28;19911;-22
2024/01/09 16:25:53;;;;;;;;;;;;;;;;;;5117688;28;20304;-26
2024/01/09 16:28:19;;;;;;;;;;;;;;;;;;5117670;28;19912;-22
2024/01/09 16:30:45;;;;;;;;;;;;;;;;;;5116519;28;20262;-28
2024/01/09 16:33:11;;;;;;;;;;;;;;;;;;5117354;28;19995;-25
2024/01/09 16:35:37;;;;;;;;;;;;;;;;;;5117803;28;19937;-24
2024/01/09 16:38:04;;;;;;;;;;;;;;;;;;5117836;28;19918;-27